Aeroporto :
LOGIN :

Iscrizione | Disclaimer

   EN    FR    IT 

 










Sommario :    VFR   VFR Marginale   IFR   IFR Intensivo   IFR Molto Intensivo
Visibilità : 
Base nubi : 
>= 8 km
>= 3000ft
5 / 8 km
1000 / 3000 ft
1500m / 5 km
500 / 1000 ft
800 / 1500m
200 / 500 ft
< 800m
< 200 ft
Simboli :   Temporali  Nebbia  Neve Forte  Precipitazioni Forti  Vento > 20 kt
SIGMETs :   Varie  Temporali  Ghiacco  Turbolenza  Onda orograficha  Ceneri Vulcaniche






- Altitudine del aeroporto : 640 ft
- Codice IATA : AOC


EDAC - Altenburg-Nobitz

ULTIMO METAR :
  • 011820Z AUTO 14003KT 9999 // NCD 04/M06 Q1016

METARs OBSOLETI :
  • 011750Z AUTO 00000KT 9999 // NCD 06/M06 Q1016
  • 011720Z AUTO 31003KT 9999 // NCD 07/M07 Q1016
  • 011650Z AUTO 32004KT 9999 // NCD 08/M07 Q1017
  • 011620Z AUTO 29005KT 230V340 9999 // NCD 08/M07 Q1017
  • 011550Z AUTO VRB02KT 9999 // NCD 09/M07 Q1017

TAF TAF EDAC
Valido dal 01 a 15 ore il 02 a 00 ore UTC


011400Z 0115/0124 27005KT CAVOK



MetMap, La meteo Aeronautica in un colpo d'occhio ! - Copyright ORBIFLY Dicembre 2007 - Disclaimer

ORBIFLY MET'MAP TEAM :

Programmazione e sviluppo : Alexandra Zaïnal
Concezione : Baudouin d'Aumeries
Aiuto per la programmazione : Marc-Olivier Méhu
Supporto tecnico e logistico : Manuel Goepfert
Aiuto per la traduzione : Arnaldo La Scala

Contatto : metmap@orbifly.com




FONTI E CREDITI :

   NOAA